sensor_id;sensor_type;location;lat;lon;timestamp;temperature;humidity
10443;DHT22;5269;51.146;16.986;2023-06-19T00:02:02;16.20;99.90
10443;DHT22;5269;51.146;16.986;2023-06-19T00:04:28;16.20;99.90
10443;DHT22;5269;51.146;16.986;2023-06-19T00:06:55;16.20;99.90
10443;DHT22;5269;51.146;16.986;2023-06-19T00:09:22;16.10;99.90
10443;DHT22;5269;51.146;16.986;2023-06-19T00:11:49;16.00;99.90
10443;DHT22;5269;51.146;16.986;2023-06-19T00:14:18;16.00;99.90
10443;DHT22;5269;51.146;16.986;2023-06-19T00:16:45;15.90;99.90
10443;DHT22;5269;51.146;16.986;2023-06-19T00:19:11;16.00;99.90
10443;DHT22;5269;51.146;16.986;2023-06-19T00:21:38;15.90;99.90
10443;DHT22;5269;51.146;16.986;2023-06-19T00:24:06;15.90;99.90
10443;DHT22;5269;51.146;16.986;2023-06-19T00:26:32;15.80;99.90
10443;DHT22;5269;51.146;16.986;2023-06-19T00:29:03;15.80;99.90
10443;DHT22;5269;51.146;16.986;2023-06-19T00:31:33;15.80;99.90
10443;DHT22;5269;51.146;16.986;2023-06-19T00:34:02;15.70;99.90
10443;DHT22;5269;51.146;16.986;2023-06-19T00:36:29;15.60;99.90
10443;DHT22;5269;51.146;16.986;2023-06-19T00:38:56;15.50;99.90
10443;DHT22;5269;51.146;16.986;2023-06-19T00:41:24;15.50;99.90
10443;DHT22;5269;51.146;16.986;2023-06-19T00:43:52;15.50;99.90
10443;DHT22;5269;51.146;16.986;2023-06-19T00:46:19;15.50;99.90
10443;DHT22;5269;51.146;16.986;2023-06-19T00:48:48;15.40;99.90
10443;DHT22;5269;51.146;16.986;2023-06-19T00:51:17;15.30;99.90
10443;DHT22;5269;51.146;16.986;2023-06-19T00:53:43;15.40;99.90
10443;DHT22;5269;51.146;16.986;2023-06-19T00:56:10;15.30;99.90
10443;DHT22;5269;51.146;16.986;2023-06-19T00:58:37;15.30;99.90
10443;DHT22;5269;51.146;16.986;2023-06-19T01:01:04;15.30;99.90
10443;DHT22;5269;51.146;16.986;2023-06-19T01:03:31;15.20;99.90
10443;DHT22;5269;51.146;16.986;2023-06-19T01:06:01;15.30;99.90
10443;DHT22;5269;51.146;16.986;2023-06-19T01:08:43;15.30;99.90
10443;DHT22;5269;51.146;16.986;2023-06-19T01:11:15;15.30;99.90
10443;DHT22;5269;51.146;16.986;2023-06-19T01:13:47;15.30;99.90
10443;DHT22;5269;51.146;16.986;2023-06-19T01:16:15;15.30;99.90
10443;DHT22;5269;51.146;16.986;2023-06-19T01:18:43;15.20;99.90
10443;DHT22;5269;51.146;16.986;2023-06-19T01:21:13;15.10;99.90
10443;DHT22;5269;51.146;16.986;2023-06-19T01:23:42;15.20;99.90
10443;DHT22;5269;51.146;16.986;2023-06-19T01:26:09;14.90;99.90
10443;DHT22;5269;51.146;16.986;2023-06-19T01:28:39;14.90;99.90
10443;DHT22;5269;51.146;16.986;2023-06-19T01:31:12;15.00;99.90
10443;DHT22;5269;51.146;16.986;2023-06-19T01:33:40;15.00;99.90
10443;DHT22;5269;51.146;16.986;2023-06-19T01:36:09;15.10;99.90
10443;DHT22;5269;51.146;16.986;2023-06-19T01:38:37;15.10;99.90
10443;DHT22;5269;51.146;16.986;2023-06-19T01:41:08;15.10;99.90
10443;DHT22;5269;51.146;16.986;2023-06-19T01:43:36;15.10;99.90
10443;DHT22;5269;51.146;16.986;2023-06-19T01:46:03;15.10;99.90
10443;DHT22;5269;51.146;16.986;2023-06-19T01:48:31;15.10;99.90
10443;DHT22;5269;51.146;16.986;2023-06-19T01:50:58;15.00;99.90
10443;DHT22;5269;51.146;16.986;2023-06-19T01:53:24;15.00;99.90
10443;DHT22;5269;51.146;16.986;2023-06-19T01:55:51;14.90;99.90
10443;DHT22;5269;51.146;16.986;2023-06-19T01:58:20;14.90;99.90
10443;DHT22;5269;51.146;16.986;2023-06-19T02:00:47;14.90;99.90
10443;DHT22;5269;51.146;16.986;2023-06-19T02:03:13;14.80;99.90
10443;DHT22;5269;51.146;16.986;2023-06-19T02:05:41;14.80;99.90
10443;DHT22;5269;51.146;16.986;2023-06-19T02:08:08;14.80;99.90
10443;DHT22;5269;51.146;16.986;2023-06-19T02:10:35;14.80;99.90
10443;DHT22;5269;51.146;16.986;2023-06-19T02:13:02;14.80;99.90
10443;DHT22;5269;51.146;16.986;2023-06-19T02:15:31;14.70;99.90
10443;DHT22;5269;51.146;16.986;2023-06-19T02:17:59;14.70;99.90
10443;DHT22;5269;51.146;16.986;2023-06-19T02:20:26;14.60;99.90
10443;DHT22;5269;51.146;16.986;2023-06-19T02:22:54;14.60;99.90
10443;DHT22;5269;51.146;16.986;2023-06-19T02:25:21;14.50;99.90
10443;DHT22;5269;51.146;16.986;2023-06-19T02:27:48;14.50;99.90
10443;DHT22;5269;51.146;16.986;2023-06-19T02:30:15;14.50;99.90
10443;DHT22;5269;51.146;16.986;2023-06-19T02:32:43;14.50;99.90
10443;DHT22;5269;51.146;16.986;2023-06-19T02:35:11;14.50;99.90
10443;DHT22;5269;51.146;16.986;2023-06-19T02:37:38;14.60;99.90
10443;DHT22;5269;51.146;16.986;2023-06-19T02:40:06;14.60;99.90
10443;DHT22;5269;51.146;16.986;2023-06-19T02:42:34;14.60;99.90
10443;DHT22;5269;51.146;16.986;2023-06-19T02:45:01;14.50;99.90
10443;DHT22;5269;51.146;16.986;2023-06-19T02:47:29;14.50;99.90
10443;DHT22;5269;51.146;16.986;2023-06-19T02:49:58;14.50;99.90
10443;DHT22;5269;51.146;16.986;2023-06-19T02:52:26;14.40;99.90
10443;DHT22;5269;51.146;16.986;2023-06-19T02:54:53;14.40;99.90
10443;DHT22;5269;51.146;16.986;2023-06-19T02:57:20;14.30;99.90
10443;DHT22;5269;51.146;16.986;2023-06-19T02:59:48;14.30;99.90
10443;DHT22;5269;51.146;16.986;2023-06-19T03:02:15;14.40;99.90
10443;DHT22;5269;51.146;16.986;2023-06-19T03:04:43;14.50;99.90
10443;DHT22;5269;51.146;16.986;2023-06-19T03:07:12;14.60;99.90
10443;DHT22;5269;51.146;16.986;2023-06-19T03:09:39;14.60;99.90
10443;DHT22;5269;51.146;16.986;2023-06-19T03:12:07;14.60;99.90
10443;DHT22;5269;51.146;16.986;2023-06-19T03:14:34;14.60;99.90
10443;DHT22;5269;51.146;16.986;2023-06-19T03:17:01;14.60;99.90
10443;DHT22;5269;51.146;16.986;2023-06-19T03:19:28;14.70;99.90
10443;DHT22;5269;51.146;16.986;2023-06-19T03:21:55;15.00;99.90
10443;DHT22;5269;51.146;16.986;2023-06-19T03:24:23;15.50;99.90
10443;DHT22;5269;51.146;16.986;2023-06-19T03:26:51;16.00;99.90
10443;DHT22;5269;51.146;16.986;2023-06-19T03:29:18;16.00;99.90
10443;DHT22;5269;51.146;16.986;2023-06-19T03:31:45;15.90;99.90
10443;DHT22;5269;51.146;16.986;2023-06-19T03:34:12;15.80;99.90
10443;DHT22;5269;51.146;16.986;2023-06-19T03:36:39;15.60;99.90
10443;DHT22;5269;51.146;16.986;2023-06-19T03:39:06;15.50;99.90
10443;DHT22;5269;51.146;16.986;2023-06-19T03:41:36;15.40;99.90
10443;DHT22;5269;51.146;16.986;2023-06-19T03:44:03;15.40;99.90
10443;DHT22;5269;51.146;16.986;2023-06-19T03:46:30;15.30;99.90
10443;DHT22;5269;51.146;16.986;2023-06-19T03:48:57;15.40;99.90
10443;DHT22;5269;51.146;16.986;2023-06-19T03:51:24;15.50;99.90
10443;DHT22;5269;51.146;16.986;2023-06-19T03:53:51;15.60;99.90
10443;DHT22;5269;51.146;16.986;2023-06-19T03:56:18;15.80;99.90
10443;DHT22;5269;51.146;16.986;2023-06-19T03:58:46;15.90;99.90
10443;DHT22;5269;51.146;16.986;2023-06-19T04:01:13;16.00;99.90
10443;DHT22;5269;51.146;16.986;2023-06-19T04:03:40;16.20;99.90
10443;DHT22;5269;51.146;16.986;2023-06-19T04:06:07;16.30;99.90
10443;DHT22;5269;51.146;16.986;2023-06-19T04:08:34;16.40;99.90
10443;DHT22;5269;51.146;16.986;2023-06-19T04:11:00;16.50;99.90
10443;DHT22;5269;51.146;16.986;2023-06-19T04:13:27;16.70;99.90
10443;DHT22;5269;51.146;16.986;2023-06-19T04:15:56;16.90;99.90
10443;DHT22;5269;51.146;16.986;2023-06-19T04:18:22;17.10;99.90
10443;DHT22;5269;51.146;16.986;2023-06-19T04:20:49;17.20;99.90
10443;DHT22;5269;51.146;16.986;2023-06-19T04:23:16;17.30;99.90
10443;DHT22;5269;51.146;16.986;2023-06-19T04:25:43;17.50;99.90
10443;DHT22;5269;51.146;16.986;2023-06-19T04:28:10;17.60;99.90
10443;DHT22;5269;51.146;16.986;2023-06-19T04:30:37;17.60;1.00
10443;DHT22;5269;51.146;16.986;2023-06-19T04:33:08;17.60;99.90
10443;DHT22;5269;51.146;16.986;2023-06-19T04:35:35;17.70;99.90
10443;DHT22;5269;51.146;16.986;2023-06-19T04:38:05;17.80;99.90
10443;DHT22;5269;51.146;16.986;2023-06-19T04:40:32;17.80;1.00
10443;DHT22;5269;51.146;16.986;2023-06-19T04:42:59;18.00;99.90
10443;DHT22;5269;51.146;16.986;2023-06-19T04:45:26;18.00;1.00
10443;DHT22;5269;51.146;16.986;2023-06-19T04:47:53;18.00;99.90
10443;DHT22;5269;51.146;16.986;2023-06-19T04:50:21;18.00;99.90
10443;DHT22;5269;51.146;16.986;2023-06-19T04:52:48;18.10;99.90
10443;DHT22;5269;51.146;16.986;2023-06-19T04:55:16;18.10;1.00
10443;DHT22;5269;51.146;16.986;2023-06-19T04:57:42;18.10;1.00
10443;DHT22;5269;51.146;16.986;2023-06-19T05:00:10;18.20;99.90
10443;DHT22;5269;51.146;16.986;2023-06-19T05:02:38;18.20;99.90
10443;DHT22;5269;51.146;16.986;2023-06-19T05:05:09;18.30;99.90
10443;DHT22;5269;51.146;16.986;2023-06-19T05:07:37;18.30;1.00
10443;DHT22;5269;51.146;16.986;2023-06-19T05:10:05;18.30;1.00
10443;DHT22;5269;51.146;16.986;2023-06-19T05:12:34;18.40;1.00
10443;DHT22;5269;51.146;16.986;2023-06-19T05:15:01;18.40;99.90
10443;DHT22;5269;51.146;16.986;2023-06-19T05:17:28;18.30;99.90
10443;DHT22;5269;51.146;16.986;2023-06-19T05:19:55;18.30;1.00
10443;DHT22;5269;51.146;16.986;2023-06-19T05:22:22;18.20;1.00
10443;DHT22;5269;51.146;16.986;2023-06-19T05:24:51;18.30;99.90
10443;DHT22;5269;51.146;16.986;2023-06-19T05:27:17;18.40;1.00
10443;DHT22;5269;51.146;16.986;2023-06-19T05:29:44;18.50;1.00
10443;DHT22;5269;51.146;16.986;2023-06-19T05:32:11;18.80;99.90
10443;DHT22;5269;51.146;16.986;2023-06-19T05:34:38;18.80;4.60
10443;DHT22;5269;51.146;16.986;2023-06-19T05:37:05;18.80;1.00
10443;DHT22;5269;51.146;16.986;2023-06-19T05:39:32;18.90;1.00
10443;DHT22;5269;51.146;16.986;2023-06-19T05:42:00;19.10;1.00
10443;DHT22;5269;51.146;16.986;2023-06-19T05:44:27;19.10;99.90
10443;DHT22;5269;51.146;16.986;2023-06-19T05:46:54;19.40;99.90
10443;DHT22;5269;51.146;16.986;2023-06-19T05:49:21;19.30;1.00
10443;DHT22;5269;51.146;16.986;2023-06-19T05:51:48;19.50;1.00
10443;DHT22;5269;51.146;16.986;2023-06-19T05:54:15;19.70;99.90
10443;DHT22;5269;51.146;16.986;2023-06-19T05:56:43;19.80;1.00
10443;DHT22;5269;51.146;16.986;2023-06-19T05:59:11;20.00;1.00
10443;DHT22;5269;51.146;16.986;2023-06-19T06:01:40;20.20;99.90
10443;DHT22;5269;51.146;16.986;2023-06-19T06:04:06;20.50;1.00
10443;DHT22;5269;51.146;16.986;2023-06-19T06:06:33;20.80;1.00
10443;DHT22;5269;51.146;16.986;2023-06-19T06:09:00;21.00;99.90
10443;DHT22;5269;51.146;16.986;2023-06-19T06:11:27;21.20;99.90
10443;DHT22;5269;51.146;16.986;2023-06-19T06:13:54;21.30;43.90
10443;DHT22;5269;51.146;16.986;2023-06-19T06:16:22;21.50;1.00
10443;DHT22;5269;51.146;16.986;2023-06-19T06:18:49;21.60;1.00
10443;DHT22;5269;51.146;16.986;2023-06-19T06:21:16;21.50;1.00
10443;DHT22;5269;51.146;16.986;2023-06-19T06:23:43;21.70;1.00
10443;DHT22;5269;51.146;16.986;2023-06-19T06:26:10;21.60;1.00
10443;DHT22;5269;51.146;16.986;2023-06-19T06:28:37;21.60;1.00
10443;DHT22;5269;51.146;16.986;2023-06-19T06:31:05;21.90;1.00
10443;DHT22;5269;51.146;16.986;2023-06-19T06:33:33;21.90;1.00
10443;DHT22;5269;51.146;16.986;2023-06-19T06:36:01;22.00;1.00
10443;DHT22;5269;51.146;16.986;2023-06-19T06:38:27;22.20;99.90
10443;DHT22;5269;51.146;16.986;2023-06-19T06:40:56;22.30;99.90
10443;DHT22;5269;51.146;16.986;2023-06-19T06:43:23;22.60;99.90
10443;DHT22;5269;51.146;16.986;2023-06-19T06:45:50;22.50;99.90
10443;DHT22;5269;51.146;16.986;2023-06-19T06:48:17;22.30;99.90
10443;DHT22;5269;51.146;16.986;2023-06-19T06:50:45;22.00;1.00
10443;DHT22;5269;51.146;16.986;2023-06-19T06:53:12;22.00;1.00
10443;DHT22;5269;51.146;16.986;2023-06-19T06:55:39;21.90;1.00
10443;DHT22;5269;51.146;16.986;2023-06-19T06:58:05;22.10;1.00
10443;DHT22;5269;51.146;16.986;2023-06-19T07:00:32;22.30;1.00
10443;DHT22;5269;51.146;16.986;2023-06-19T07:02:59;22.60;99.90
10443;DHT22;5269;51.146;16.986;2023-06-19T07:05:26;22.70;99.90
10443;DHT22;5269;51.146;16.986;2023-06-19T07:07:55;22.80;99.90
10443;DHT22;5269;51.146;16.986;2023-06-19T07:10:22;23.00;99.90
10443;DHT22;5269;51.146;16.986;2023-06-19T07:12:49;23.20;99.90
10443;DHT22;5269;51.146;16.986;2023-06-19T07:15:17;23.30;99.90
10443;DHT22;5269;51.146;16.986;2023-06-19T07:17:44;23.40;99.90
10443;DHT22;5269;51.146;16.986;2023-06-19T07:20:11;23.40;90.10
10443;DHT22;5269;51.146;16.986;2023-06-19T07:22:38;23.60;96.70
10443;DHT22;5269;51.146;16.986;2023-06-19T07:25:09;23.80;1.00
10443;DHT22;5269;51.146;16.986;2023-06-19T07:27:36;23.60;1.00
10443;DHT22;5269;51.146;16.986;2023-06-19T07:30:04;23.70;1.00
10443;DHT22;5269;51.146;16.986;2023-06-19T07:32:31;23.90;1.00
10443;DHT22;5269;51.146;16.986;2023-06-19T07:34:58;24.00;1.00
10443;DHT22;5269;51.146;16.986;2023-06-19T07:37:25;24.00;1.00
10443;DHT22;5269;51.146;16.986;2023-06-19T07:39:52;23.90;1.00
10443;DHT22;5269;51.146;16.986;2023-06-19T07:42:20;23.90;1.00
10443;DHT22;5269;51.146;16.986;2023-06-19T07:44:47;24.10;1.00
10443;DHT22;5269;51.146;16.986;2023-06-19T07:47:16;24.20;1.00
10443;DHT22;5269;51.146;16.986;2023-06-19T07:49:43;24.20;1.00
10443;DHT22;5269;51.146;16.986;2023-06-19T07:52:11;24.30;1.00
10443;DHT22;5269;51.146;16.986;2023-06-19T07:54:48;24.30;1.00
10443;DHT22;5269;51.146;16.986;2023-06-19T07:57:15;24.40;1.00
10443;DHT22;5269;51.146;16.986;2023-06-19T07:59:43;24.60;1.00
10443;DHT22;5269;51.146;16.986;2023-06-19T08:02:10;24.80;1.00
10443;DHT22;5269;51.146;16.986;2023-06-19T08:04:37;24.80;1.00
10443;DHT22;5269;51.146;16.986;2023-06-19T08:07:04;24.90;1.00
10443;DHT22;5269;51.146;16.986;2023-06-19T08:09:31;24.80;1.00
10443;DHT22;5269;51.146;16.986;2023-06-19T08:11:58;24.90;1.00
10443;DHT22;5269;51.146;16.986;2023-06-19T08:14:25;25.10;1.00
10443;DHT22;5269;51.146;16.986;2023-06-19T08:16:54;25.10;1.00
10443;DHT22;5269;51.146;16.986;2023-06-19T08:19:21;25.30;1.00
10443;DHT22;5269;51.146;16.986;2023-06-19T08:21:48;25.20;1.00
10443;DHT22;5269;51.146;16.986;2023-06-19T08:24:15;25.20;1.00
10443;DHT22;5269;51.146;16.986;2023-06-19T08:26:42;25.20;1.00
10443;DHT22;5269;51.146;16.986;2023-06-19T08:29:09;25.20;1.00
10443;DHT22;5269;51.146;16.986;2023-06-19T08:31:36;25.20;1.00
10443;DHT22;5269;51.146;16.986;2023-06-19T08:34:04;24.90;1.00
10443;DHT22;5269;51.146;16.986;2023-06-19T08:36:34;25.30;1.00
10443;DHT22;5269;51.146;16.986;2023-06-19T08:39:02;25.50;1.00
10443;DHT22;5269;51.146;16.986;2023-06-19T08:41:29;25.60;1.00
10443;DHT22;5269;51.146;16.986;2023-06-19T08:43:56;25.70;1.00
10443;DHT22;5269;51.146;16.986;2023-06-19T08:46:23;25.70;1.00
10443;DHT22;5269;51.146;16.986;2023-06-19T08:48:50;25.90;1.00
10443;DHT22;5269;51.146;16.986;2023-06-19T08:51:18;26.00;1.00
10443;DHT22;5269;51.146;16.986;2023-06-19T08:53:47;25.80;1.00
10443;DHT22;5269;51.146;16.986;2023-06-19T08:56:16;25.50;1.00
10443;DHT22;5269;51.146;16.986;2023-06-19T08:58:43;25.60;1.00
10443;DHT22;5269;51.146;16.986;2023-06-19T09:01:10;25.80;1.00
10443;DHT22;5269;51.146;16.986;2023-06-19T09:03:38;25.80;1.00
10443;DHT22;5269;51.146;16.986;2023-06-19T09:06:07;25.80;1.00
10443;DHT22;5269;51.146;16.986;2023-06-19T09:08:35;25.60;1.00
10443;DHT22;5269;51.146;16.986;2023-06-19T09:11:04;25.40;1.00
10443;DHT22;5269;51.146;16.986;2023-06-19T09:13:32;25.20;1.00
10443;DHT22;5269;51.146;16.986;2023-06-19T09:16:00;25.70;1.00
10443;DHT22;5269;51.146;16.986;2023-06-19T09:18:29;26.10;1.00
10443;DHT22;5269;51.146;16.986;2023-06-19T09:20:57;25.90;1.00
10443;DHT22;5269;51.146;16.986;2023-06-19T09:23:24;26.30;1.00
10443;DHT22;5269;51.146;16.986;2023-06-19T09:25:53;26.30;99.90
10443;DHT22;5269;51.146;16.986;2023-06-19T09:28:23;26.40;99.90
10443;DHT22;5269;51.146;16.986;2023-06-19T09:30:54;26.70;99.90
10443;DHT22;5269;51.146;16.986;2023-06-19T09:33:22;26.70;99.90
10443;DHT22;5269;51.146;16.986;2023-06-19T09:35:50;26.70;99.90
10443;DHT22;5269;51.146;16.986;2023-06-19T09:38:17;26.50;99.90
10443;DHT22;5269;51.146;16.986;2023-06-19T09:40:46;26.70;99.90
10443;DHT22;5269;51.146;16.986;2023-06-19T09:43:21;26.60;99.90
10443;DHT22;5269;51.146;16.986;2023-06-19T09:45:50;26.70;99.90
10443;DHT22;5269;51.146;16.986;2023-06-19T09:48:20;26.90;99.90
10443;DHT22;5269;51.146;16.986;2023-06-19T09:50:51;26.90;99.90
10443;DHT22;5269;51.146;16.986;2023-06-19T09:53:19;26.80;99.90
10443;DHT22;5269;51.146;16.986;2023-06-19T09:55:48;26.40;99.90
10443;DHT22;5269;51.146;16.986;2023-06-19T09:58:18;26.20;99.90
10443;DHT22;5269;51.146;16.986;2023-06-19T10:00:46;26.40;99.90
10443;DHT22;5269;51.146;16.986;2023-06-19T10:03:15;26.80;99.90
10443;DHT22;5269;51.146;16.986;2023-06-19T10:05:43;26.70;99.90
10443;DHT22;5269;51.146;16.986;2023-06-19T10:08:10;26.90;99.90
10443;DHT22;5269;51.146;16.986;2023-06-19T10:10:46;27.10;99.90
10443;DHT22;5269;51.146;16.986;2023-06-19T10:13:14;27.10;99.90
10443;DHT22;5269;51.146;16.986;2023-06-19T10:15:44;27.00;99.90
10443;DHT22;5269;51.146;16.986;2023-06-19T10:18:14;27.00;99.90
10443;DHT22;5269;51.146;16.986;2023-06-19T10:20:44;27.40;99.90
10443;DHT22;5269;51.146;16.986;2023-06-19T10:23:12;27.90;99.90
10443;DHT22;5269;51.146;16.986;2023-06-19T10:25:42;28.10;99.90
10443;DHT22;5269;51.146;16.986;2023-06-19T10:28:17;28.10;99.90
10443;DHT22;5269;51.146;16.986;2023-06-19T10:30:51;28.20;99.90
10443;DHT22;5269;51.146;16.986;2023-06-19T10:33:18;28.40;99.90
10443;DHT22;5269;51.146;16.986;2023-06-19T10:35:45;28.10;99.90
10443;DHT22;5269;51.146;16.986;2023-06-19T10:38:15;28.10;99.90
10443;DHT22;5269;51.146;16.986;2023-06-19T10:40:43;28.20;99.90
10443;DHT22;5269;51.146;16.986;2023-06-19T10:43:10;27.80;99.90
10443;DHT22;5269;51.146;16.986;2023-06-19T10:45:37;27.90;99.90
10443;DHT22;5269;51.146;16.986;2023-06-19T10:48:06;28.20;99.90
10443;DHT22;5269;51.146;16.986;2023-06-19T10:50:37;28.30;99.90
10443;DHT22;5269;51.146;16.986;2023-06-19T10:53:06;28.30;99.90
10443;DHT22;5269;51.146;16.986;2023-06-19T10:55:34;28.80;99.90
10443;DHT22;5269;51.146;16.986;2023-06-19T10:58:01;28.60;99.90
10443;DHT22;5269;51.146;16.986;2023-06-19T11:00:29;28.80;99.90
10443;DHT22;5269;51.146;16.986;2023-06-19T11:02:57;28.90;99.90
10443;DHT22;5269;51.146;16.986;2023-06-19T11:05:27;28.60;99.90
10443;DHT22;5269;51.146;16.986;2023-06-19T11:07:56;28.50;99.90
10443;DHT22;5269;51.146;16.986;2023-06-19T11:10:26;28.60;99.90
10443;DHT22;5269;51.146;16.986;2023-06-19T11:12:54;28.80;99.90
10443;DHT22;5269;51.146;16.986;2023-06-19T11:15:28;28.50;99.90
10443;DHT22;5269;51.146;16.986;2023-06-19T11:17:55;28.50;99.90
10443;DHT22;5269;51.146;16.986;2023-06-19T11:20:22;28.80;99.90
10443;DHT22;5269;51.146;16.986;2023-06-19T11:22:55;29.00;99.90
10443;DHT22;5269;51.146;16.986;2023-06-19T11:25:23;28.80;99.90
10443;DHT22;5269;51.146;16.986;2023-06-19T11:27:51;29.20;99.90
10443;DHT22;5269;51.146;16.986;2023-06-19T11:30:30;28.30;99.90
10443;DHT22;5269;51.146;16.986;2023-06-19T11:32:57;28.50;99.90
10443;DHT22;5269;51.146;16.986;2023-06-19T11:35:24;28.90;99.90
10443;DHT22;5269;51.146;16.986;2023-06-19T11:37:58;29.20;99.90
10443;DHT22;5269;51.146;16.986;2023-06-19T11:40:28;29.00;99.90
10443;DHT22;5269;51.146;16.986;2023-06-19T11:43:04;29.10;99.90
10443;DHT22;5269;51.146;16.986;2023-06-19T11:45:31;29.10;99.90
10443;DHT22;5269;51.146;16.986;2023-06-19T11:47:58;29.20;99.90
10443;DHT22;5269;51.146;16.986;2023-06-19T11:50:27;28.50;99.90
10443;DHT22;5269;51.146;16.986;2023-06-19T11:52:53;28.60;99.90
10443;DHT22;5269;51.146;16.986;2023-06-19T11:55:24;28.70;99.90
10443;DHT22;5269;51.146;16.986;2023-06-19T11:57:51;29.10;99.90
10443;DHT22;5269;51.146;16.986;2023-06-19T12:00:18;29.50;99.90
10443;DHT22;5269;51.146;16.986;2023-06-19T12:02:45;29.60;99.90
10443;DHT22;5269;51.146;16.986;2023-06-19T12:05:13;29.80;99.90
10443;DHT22;5269;51.146;16.986;2023-06-19T12:07:40;30.10;99.90
10443;DHT22;5269;51.146;16.986;2023-06-19T12:10:08;30.30;99.90
10443;DHT22;5269;51.146;16.986;2023-06-19T12:12:38;30.30;99.90
10443;DHT22;5269;51.146;16.986;2023-06-19T12:15:07;29.40;99.90
10443;DHT22;5269;51.146;16.986;2023-06-19T12:17:34;28.70;99.90
10443;DHT22;5269;51.146;16.986;2023-06-19T12:20:01;28.90;99.90
10443;DHT22;5269;51.146;16.986;2023-06-19T12:22:31;29.00;99.90
10443;DHT22;5269;51.146;16.986;2023-06-19T12:24:58;29.10;99.90
10443;DHT22;5269;51.146;16.986;2023-06-19T12:27:25;28.90;99.90
10443;DHT22;5269;51.146;16.986;2023-06-19T12:29:53;28.70;99.90
10443;DHT22;5269;51.146;16.986;2023-06-19T12:32:20;28.70;99.90
10443;DHT22;5269;51.146;16.986;2023-06-19T12:34:47;28.80;99.90
10443;DHT22;5269;51.146;16.986;2023-06-19T12:37:14;29.00;99.90
10443;DHT22;5269;51.146;16.986;2023-06-19T12:39:43;29.00;99.90
10443;DHT22;5269;51.146;16.986;2023-06-19T12:42:10;29.20;99.90
10443;DHT22;5269;51.146;16.986;2023-06-19T12:44:39;29.50;99.90
10443;DHT22;5269;51.146;16.986;2023-06-19T12:47:08;29.70;99.90
10443;DHT22;5269;51.146;16.986;2023-06-19T12:49:35;29.20;99.90
10443;DHT22;5269;51.146;16.986;2023-06-19T12:52:02;29.10;99.90
10443;DHT22;5269;51.146;16.986;2023-06-19T12:54:29;29.20;99.90
10443;DHT22;5269;51.146;16.986;2023-06-19T12:56:56;29.30;99.90
10443;DHT22;5269;51.146;16.986;2023-06-19T12:59:23;29.30;99.90
10443;DHT22;5269;51.146;16.986;2023-06-19T13:01:50;29.20;99.90
10443;DHT22;5269;51.146;16.986;2023-06-19T13:04:18;29.20;99.90
10443;DHT22;5269;51.146;16.986;2023-06-19T13:06:45;29.40;99.90
10443;DHT22;5269;51.146;16.986;2023-06-19T13:09:12;29.10;99.90
10443;DHT22;5269;51.146;16.986;2023-06-19T13:11:39;29.10;99.90
10443;DHT22;5269;51.146;16.986;2023-06-19T13:14:06;29.00;99.90
10443;DHT22;5269;51.146;16.986;2023-06-19T13:16:32;28.70;99.90
10443;DHT22;5269;51.146;16.986;2023-06-19T13:18:59;28.50;99.90
10443;DHT22;5269;51.146;16.986;2023-06-19T13:21:28;28.60;99.90
10443;DHT22;5269;51.146;16.986;2023-06-19T13:23:55;28.60;99.90
10443;DHT22;5269;51.146;16.986;2023-06-19T13:26:21;28.60;99.90
10443;DHT22;5269;51.146;16.986;2023-06-19T13:28:48;28.80;99.90
10443;DHT22;5269;51.146;16.986;2023-06-19T13:31:15;28.70;99.90
10443;DHT22;5269;51.146;16.986;2023-06-19T13:33:42;28.90;99.90
10443;DHT22;5269;51.146;16.986;2023-06-19T13:36:09;28.80;99.90
10443;DHT22;5269;51.146;16.986;2023-06-19T13:38:38;29.00;99.90
10443;DHT22;5269;51.146;16.986;2023-06-19T13:41:05;29.20;99.90
10443;DHT22;5269;51.146;16.986;2023-06-19T13:43:32;29.00;99.90
10443;DHT22;5269;51.146;16.986;2023-06-19T13:45:59;29.00;99.90
10443;DHT22;5269;51.146;16.986;2023-06-19T13:48:26;29.30;99.90
10443;DHT22;5269;51.146;16.986;2023-06-19T13:50:53;29.30;99.90
10443;DHT22;5269;51.146;16.986;2023-06-19T13:53:20;29.50;99.90
10443;DHT22;5269;51.146;16.986;2023-06-19T13:55:48;29.80;99.90
10443;DHT22;5269;51.146;16.986;2023-06-19T13:58:15;30.00;99.90
10443;DHT22;5269;51.146;16.986;2023-06-19T14:00:42;30.10;99.90
10443;DHT22;5269;51.146;16.986;2023-06-19T14:03:09;30.50;99.90
10443;DHT22;5269;51.146;16.986;2023-06-19T14:05:36;30.50;99.90
10443;DHT22;5269;51.146;16.986;2023-06-19T14:08:04;30.10;99.90
10443;DHT22;5269;51.146;16.986;2023-06-19T14:10:31;30.40;99.90
10443;DHT22;5269;51.146;16.986;2023-06-19T14:12:59;30.50;99.90
10443;DHT22;5269;51.146;16.986;2023-06-19T14:15:26;30.80;99.90
10443;DHT22;5269;51.146;16.986;2023-06-19T14:17:53;30.70;99.90
10443;DHT22;5269;51.146;16.986;2023-06-19T14:20:20;31.10;99.90
10443;DHT22;5269;51.146;16.986;2023-06-19T14:22:47;31.20;99.90
10443;DHT22;5269;51.146;16.986;2023-06-19T14:25:14;30.50;99.90
10443;DHT22;5269;51.146;16.986;2023-06-19T14:27:41;29.90;99.90
10443;DHT22;5269;51.146;16.986;2023-06-19T14:30:10;30.20;99.90
10443;DHT22;5269;51.146;16.986;2023-06-19T14:32:39;30.10;99.90
10443;DHT22;5269;51.146;16.986;2023-06-19T14:35:07;29.90;99.90
10443;DHT22;5269;51.146;16.986;2023-06-19T14:37:34;30.20;99.90
10443;DHT22;5269;51.146;16.986;2023-06-19T14:40:01;30.00;99.90
10443;DHT22;5269;51.146;16.986;2023-06-19T14:42:28;29.80;99.90
10443;DHT22;5269;51.146;16.986;2023-06-19T14:44:55;29.70;99.90
10443;DHT22;5269;51.146;16.986;2023-06-19T14:47:25;29.60;99.90
10443;DHT22;5269;51.146;16.986;2023-06-19T14:49:52;29.50;99.90
10443;DHT22;5269;51.146;16.986;2023-06-19T14:52:19;29.50;99.90
10443;DHT22;5269;51.146;16.986;2023-06-19T14:54:46;29.90;99.90
10443;DHT22;5269;51.146;16.986;2023-06-19T14:57:18;29.90;99.90
10443;DHT22;5269;51.146;16.986;2023-06-19T14:59:45;30.20;99.90
10443;DHT22;5269;51.146;16.986;2023-06-19T15:02:12;30.50;99.90
10443;DHT22;5269;51.146;16.986;2023-06-19T15:04:43;30.80;99.90
10443;DHT22;5269;51.146;16.986;2023-06-19T15:07:10;31.20;99.90
10443;DHT22;5269;51.146;16.986;2023-06-19T15:09:37;31.10;99.90
10443;DHT22;5269;51.146;16.986;2023-06-19T15:12:05;30.70;99.90
10443;DHT22;5269;51.146;16.986;2023-06-19T15:14:32;30.60;99.90
10443;DHT22;5269;51.146;16.986;2023-06-19T15:17:01;31.00;99.90
10443;DHT22;5269;51.146;16.986;2023-06-19T15:19:28;31.20;99.90
10443;DHT22;5269;51.146;16.986;2023-06-19T15:21:56;30.90;99.90
10443;DHT22;5269;51.146;16.986;2023-06-19T15:24:23;30.70;99.90
10443;DHT22;5269;51.146;16.986;2023-06-19T15:26:51;30.70;99.90
10443;DHT22;5269;51.146;16.986;2023-06-19T15:29:18;30.90;99.90
10443;DHT22;5269;51.146;16.986;2023-06-19T15:31:46;30.60;99.90
10443;DHT22;5269;51.146;16.986;2023-06-19T15:34:13;30.70;99.90
10443;DHT22;5269;51.146;16.986;2023-06-19T15:36:40;30.80;99.90
10443;DHT22;5269;51.146;16.986;2023-06-19T15:39:08;30.60;99.90